Time;durP1;ratioP1;P1;durP2;ratioP2;P2;SDS_P1;SDS_P2;PMS_P1;PMS_P2;Temp;Humidity;BMP_temperature;BMP_pressure;BME280_temperature;BME280_humidity;BME280_pressure;Samples;Min_cycle;Max_cycle;Signal;HPM_P1;HPM_P2
2021/10/11 00:01:18;;;;;;;15.82;6.38;;;4.60;82.80;;;;;;5025988;28;20052;-69
2021/10/11 00:03:44;;;;;;;14.63;7.63;;;4.60;83.30;;;;;;5025486;28;20375;-69
2021/10/11 00:06:10;;;;;;;19.02;7.80;;;4.50;83.60;;;;;;5024641;28;20092;-69
2021/10/11 00:08:35;;;;;;;14.98;6.57;;;4.60;83.40;;;;;;5025769;28;20048;-69
2021/10/11 00:11:01;;;;;;;14.48;6.85;;;4.60;83.20;;;;;;5025526;28;20045;-69
2021/10/11 00:13:28;;;;;;;14.38;6.72;;;4.60;83.00;;;;;;5025508;28;20101;-69
2021/10/11 00:15:54;;;;;;;13.70;7.15;;;4.50;83.30;;;;;;5025587;28;20132;-69
2021/10/11 00:18:20;;;;;;;13.60;6.65;;;4.50;83.20;;;;;;5025489;28;20035;-69
2021/10/11 00:20:45;;;;;;;12.95;6.50;;;4.50;83.00;;;;;;5025541;28;20018;-69
2021/10/11 00:23:11;;;;;;;12.60;7.47;;;4.50;82.90;;;;;;5025146;28;20270;-69
2021/10/11 00:25:38;;;;;;;16.88;7.43;;;4.40;83.20;;;;;;5025319;28;20026;-69
2021/10/11 00:28:04;;;;;;;13.30;7.03;;;4.40;83.30;;;;;;5024274;28;20026;-69
2021/10/11 00:30:30;;;;;;;12.50;6.68;;;4.30;83.00;;;;;;5025319;28;20096;-69
2021/10/11 00:32:56;;;;;;;14.50;7.15;;;4.30;83.30;;;;;;5025120;28;20500;-69
2021/10/11 00:35:22;;;;;;;16.38;8.00;;;4.30;82.80;;;;;;5025257;28;20033;-69
2021/10/11 00:37:48;;;;;;;14.90;6.95;;;4.30;82.70;;;;;;5025148;28;20033;-69
2021/10/11 00:40:13;;;;;;;12.30;7.20;;;4.30;83.00;;;;;;5024948;28;20021;-69
2021/10/11 00:42:39;;;;;;;15.52;7.22;;;4.30;82.80;;;;;;5025128;28;20320;-69
2021/10/11 00:45:06;;;;;;;15.98;6.88;;;4.10;83.20;;;;;;5024887;28;20018;-69
2021/10/11 00:47:32;;;;;;;12.38;6.53;;;4.00;83.40;;;;;;5024031;28;20030;-69
2021/10/11 00:49:58;;;;;;;12.98;6.95;;;4.00;83.40;;;;;;5023938;28;20032;-69
2021/10/11 00:52:24;;;;;;;12.65;6.72;;;4.00;83.50;;;;;;5024999;28;20252;-69
2021/10/11 00:54:50;;;;;;;15.43;7.20;;;3.90;83.30;;;;;;5024415;28;20049;-69
2021/10/11 00:57:15;;;;;;;16.02;8.05;;;3.80;83.50;;;;;;5024386;28;20030;-69
2021/10/11 00:59:41;;;;;;;12.63;6.80;;;3.70;84.30;;;;;;5024763;28;20029;-69
2021/10/11 01:02:08;;;;;;;11.80;6.82;;;3.80;84.10;;;;;;5023596;28;20038;-69
2021/10/11 01:04:33;;;;;;;13.75;7.43;;;3.80;84.10;;;;;;5023244;28;20026;-69
2021/10/11 01:06:59;;;;;;;13.93;6.93;;;3.80;83.50;;;;;;5024641;28;20030;-69
2021/10/11 01:09:25;;;;;;;11.32;6.75;;;3.70;83.90;;;;;;5024474;28;20022;-69
2021/10/11 01:11:51;;;;;;;14.65;7.30;;;3.70;84.00;;;;;;5024658;28;20069;-69
2021/10/11 01:14:17;;;;;;;13.00;7.65;;;3.70;84.20;;;;;;5024294;28;20041;-69
2021/10/11 01:16:43;;;;;;;11.65;6.65;;;3.60;84.30;;;;;;5023322;28;20033;-69
2021/10/11 01:19:09;;;;;;;15.60;6.63;;;3.70;84.00;;;;;;5024473;28;20099;-69
2021/10/11 01:21:34;;;;;;;15.60;6.80;;;3.70;84.00;;;;;;5024559;28;20093;-69
2021/10/11 01:24:00;;;;;;;14.45;6.93;;;3.60;83.70;;;;;;5024029;28;20025;-69
2021/10/11 01:26:43;;;;;;;11.73;6.18;;;3.60;83.70;;;;;;5024072;28;20051;-69
2021/10/11 01:29:11;;;;;;;13.75;6.82;;;3.50;84.10;;;;;;5030235;28;20043;-69
2021/10/11 01:31:37;;;;;;;11.70;6.32;;;3.50;84.10;;;;;;5026763;28;20092;-69
2021/10/11 01:34:03;;;;;;;14.60;6.60;;;3.40;84.40;;;;;;5043647;28;20026;-69
2021/10/11 01:36:29;;;;;;;15.98;7.70;;;3.40;84.20;;;;;;5043831;28;20327;-69
2021/10/11 01:38:56;;;;;;;15.87;6.70;;;3.30;84.30;;;;;;5037328;22;20062;-75
2021/10/11 01:41:22;;;;;;;;;;;3.30;84.60;;;;;;5019792;28;20034;-75
2021/10/11 01:43:49;;;;;;;11.38;5.30;;;3.30;84.40;;;;;;5006895;28;19916;-75
2021/10/11 01:46:14;;;;;;;15.05;7.10;;;3.30;84.30;;;;;;5023886;28;20022;-76
2021/10/11 01:48:40;;;;;;;10.27;6.43;;;3.30;84.70;;;;;;5024756;28;20032;-75
2021/10/11 01:51:06;;;;;;;15.57;7.03;;;3.30;84.30;;;;;;5024681;28;20034;-75
2021/10/11 01:53:32;;;;;;;10.77;5.68;;;3.30;84.10;;;;;;5023103;28;20096;-75
2021/10/11 01:55:58;;;;;;;11.77;6.38;;;3.40;84.10;;;;;;5023327;28;20026;-75
2021/10/11 01:58:23;;;;;;;12.25;5.90;;;3.30;84.10;;;;;;5006994;28;20089;-75
2021/10/11 02:00:49;;;;;;;13.63;6.32;;;3.30;84.50;;;;;;5023201;28;20332;-75
2021/10/11 02:03:15;;;;;;;15.65;7.82;;;3.30;84.10;;;;;;5022766;28;20029;-75
2021/10/11 02:05:41;;;;;;;13.00;6.63;;;3.40;84.10;;;;;;5023453;28;20083;-75
2021/10/11 02:08:07;;;;;;;11.68;6.63;;;3.30;84.20;;;;;;5013877;28;20030;-75
2021/10/11 02:10:32;;;;;;;11.93;6.47;;;3.30;84.30;;;;;;5003404;28;20209;-76
2021/10/11 02:12:59;;;;;;;18.05;6.72;;;3.20;84.80;;;;;;5019226;28;20030;-75
2021/10/11 02:15:25;;;;;;;11.80;6.77;;;3.10;85.20;;;;;;5003336;28;20081;-75
2021/10/11 02:17:51;;;;;;;11.23;6.00;;;3.10;85.30;;;;;;5003191;28;20022;-75
2021/10/11 02:20:17;;;;;;;10.50;6.10;;;3.10;84.90;;;;;;5003034;28;20049;-75
2021/10/11 02:22:42;;;;;;;14.43;6.63;;;3.10;85.20;;;;;;5019240;28;20026;-75
2021/10/11 02:25:08;;;;;;;14.10;7.45;;;3.10;85.50;;;;;;5018958;28;20037;-76
2021/10/11 02:27:36;;;;;;;12.07;6.35;;;3.00;85.40;;;;;;5019184;28;20026;-76
2021/10/11 02:30:04;;;;;;;14.60;6.82;;;2.90;85.50;;;;;;5002656;28;20034;-76
2021/10/11 02:32:29;;;;;;;11.90;5.97;;;2.90;85.60;;;;;;5003206;28;20064;-76
2021/10/11 02:34:55;;;;;;;14.38;7.22;;;2.90;85.40;;;;;;5003776;28;20026;-76
2021/10/11 02:37:21;;;;;;;13.57;7.38;;;2.80;85.40;;;;;;5019461;28;20065;-76
2021/10/11 02:39:48;;;;;;;11.57;6.05;;;2.90;85.60;;;;;;4986753;28;20056;-76
2021/10/11 02:42:13;;;;;;;15.77;7.47;;;3.00;85.70;;;;;;5003214;28;20347;-76
2021/10/11 02:44:39;;;;;;;12.65;6.53;;;2.90;85.20;;;;;;5003912;28;20045;-75
2021/10/11 02:47:05;;;;;;;11.43;6.45;;;2.80;85.40;;;;;;5002860;28;20046;-75
2021/10/11 02:49:31;;;;;;;13.50;6.70;;;2.90;85.40;;;;;;4986807;28;20033;-76
2021/10/11 02:51:56;;;;;;;11.73;6.20;;;2.90;85.50;;;;;;5002787;28;20364;-76
2021/10/11 02:54:22;;;;;;;12.77;7.10;;;2.90;85.00;;;;;;5002231;28;20034;-76
2021/10/11 02:56:48;;;;;;;12.70;6.28;;;2.90;85.20;;;;;;5002667;28;20022;-76
2021/10/11 02:59:14;;;;;;;14.48;6.90;;;2.90;85.50;;;;;;5003122;28;20034;-76
2021/10/11 03:01:39;;;;;;;10.82;6.38;;;2.80;85.50;;;;;;5002613;28;20372;-75
2021/10/11 03:04:05;;;;;;;11.35;6.45;;;2.90;85.20;;;;;;5002166;28;20023;-75
2021/10/11 03:06:31;;;;;;;11.18;6.65;;;2.80;85.30;;;;;;4986507;28;20332;-76
2021/10/11 03:08:57;;;;;;;11.73;6.18;;;2.80;85.10;;;;;;5003683;28;20045;-76
2021/10/11 03:11:22;;;;;;;13.55;6.85;;;2.70;85.30;;;;;;5002279;28;20321;-75
2021/10/11 03:13:48;;;;;;;9.18;6.15;;;2.70;85.70;;;;;;5002352;28;20090;-75
2021/10/11 03:16:14;;;;;;;11.85;6.05;;;2.70;85.70;;;;;;5003515;28;20022;-75
2021/10/11 03:18:40;;;;;;;13.20;5.88;;;2.70;85.90;;;;;;5002958;28;20026;-75
2021/10/11 03:21:06;;;;;;;13.57;6.82;;;2.70;85.80;;;;;;5002230;28;20030;-75
2021/10/11 03:23:31;;;;;;;11.35;6.00;;;2.60;86.00;;;;;;5001652;28;20060;-75
2021/10/11 03:25:57;;;;;;;14.88;6.40;;;2.60;85.90;;;;;;5002377;28;20014;-75
2021/10/11 03:28:23;;;;;;;14.32;6.82;;;2.60;86.00;;;;;;5002389;28;20033;-75
2021/10/11 03:30:49;;;;;;;17.20;6.50;;;2.60;86.60;;;;;;5002147;28;20022;-75
2021/10/11 03:33:15;;;;;;;15.30;6.45;;;2.60;86.70;;;;;;5018035;28;20026;-75
2021/10/11 03:35:40;;;;;;;15.02;7.45;;;2.70;86.10;;;;;;5018235;28;20081;-75
2021/10/11 03:38:06;;;;;;;15.13;6.20;;;2.60;86.20;;;;;;4985456;28;20332;-75
2021/10/11 03:40:32;;;;;;;13.25;7.32;;;2.50;86.60;;;;;;5002073;28;20037;-75
2021/10/11 03:42:58;;;;;;;12.93;6.13;;;2.30;87.30;;;;;;5018040;28;20033;-75
2021/10/11 03:45:24;;;;;;;11.98;6.40;;;2.30;87.80;;;;;;5003350;28;20076;-75
2021/10/11 03:47:49;;;;;;;13.73;6.65;;;2.40;87.80;;;;;;5018664;28;20029;-75
2021/10/11 03:50:15;;;;;;;11.45;6.13;;;2.40;87.30;;;;;;5018643;28;20065;-76
2021/10/11 03:52:41;;;;;;;12.10;6.22;;;2.40;86.90;;;;;;5001967;28;20109;-75
2021/10/11 03:55:08;;;;;;;13.32;6.28;;;2.30;87.00;;;;;;5017920;28;20034;-75
2021/10/11 03:57:34;;;;;;;12.90;6.10;;;2.30;87.00;;;;;;5018296;28;20367;-75
2021/10/11 03:59:59;;;;;;;11.35;6.63;;;2.20;87.10;;;;;;5018646;28;20202;-75
2021/10/11 04:02:26;;;;;;;15.27;7.57;;;2.20;87.00;;;;;;5018747;28;20025;-75
2021/10/11 04:04:52;;;;;;;11.40;6.85;;;2.20;87.40;;;;;;4983927;28;20045;-75
2021/10/11 04:07:19;;;;;;;14.18;6.78;;;2.30;87.70;;;;;;4985405;28;20026;-75
2021/10/11 04:09:46;;;;;;;;;;;2.30;87.50;;;;;;5001469;28;20022;-75
2021/10/11 04:12:22;;;;;;;12.52;6.10;;;2.30;87.60;;;;;;5001459;28;19985;-75
2021/10/11 04:14:48;;;;;;;14.90;6.32;;;2.30;87.40;;;;;;5017558;28;20034;-75
2021/10/11 04:17:14;;;;;;;13.70;6.68;;;2.30;87.20;;;;;;4985537;28;20245;-76
2021/10/11 04:19:40;;;;;;;16.88;7.07;;;2.30;87.80;;;;;;5001434;28;20130;-76
2021/10/11 04:22:06;;;;;;;12.82;6.80;;;2.30;87.00;;;;;;5001293;28;20094;-75
2021/10/11 04:24:31;;;;;;;12.35;7.13;;;2.40;86.90;;;;;;5000806;28;20085;-75
2021/10/11 04:26:57;;;;;;;11.75;6.85;;;2.40;87.30;;;;;;5002232;28;20367;-76
2021/10/11 04:29:23;;;;;;;13.50;6.65;;;2.30;86.90;;;;;;5001008;28;20033;-75
2021/10/11 04:31:49;;;;;;;11.63;6.38;;;2.30;86.90;;;;;;5004621;28;20018;-75
2021/10/11 04:34:15;;;;;;;12.82;6.65;;;2.40;87.00;;;;;;5005295;28;20046;-76
2021/10/11 04:36:40;;;;;;;11.70;6.63;;;2.40;86.80;;;;;;5005788;28;20085;-75
2021/10/11 04:39:06;;;;;;;13.10;6.47;;;2.40;87.20;;;;;;5004183;28;20335;-75
2021/10/11 04:41:32;;;;;;;12.80;6.65;;;2.40;87.10;;;;;;5004620;28;20018;-75
2021/10/11 04:43:58;;;;;;;14.82;6.97;;;2.30;87.50;;;;;;5004446;28;20301;-75
2021/10/11 04:46:24;;;;;;;12.27;6.82;;;2.40;87.30;;;;;;5004921;28;20061;-76
2021/10/11 04:48:50;;;;;;;12.23;6.28;;;2.30;87.30;;;;;;5004791;28;20041;-76
2021/10/11 04:51:15;;;;;;;13.55;6.75;;;2.20;87.60;;;;;;5005200;28;20114;-75
2021/10/11 04:53:41;;;;;;;10.27;6.15;;;2.20;88.00;;;;;;5005556;28;20041;-75
2021/10/11 04:56:07;;;;;;;14.82;6.68;;;2.20;87.80;;;;;;5005755;28;20056;-75
2021/10/11 04:58:33;;;;;;;13.32;7.50;;;2.20;88.00;;;;;;5005108;28;20086;-76
2021/10/11 05:00:59;;;;;;;14.82;7.82;;;2.30;87.80;;;;;;4988936;28;20029;-75
2021/10/11 05:03:24;;;;;;;14.35;7.00;;;2.30;87.90;;;;;;5021501;28;20072;-75
2021/10/11 05:05:50;;;;;;;13.13;7.20;;;2.30;87.60;;;;;;5006471;28;20026;-75
2021/10/11 05:08:16;;;;;;;13.75;7.78;;;2.20;87.20;;;;;;5021109;28;20030;-75
2021/10/11 05:10:42;;;;;;;13.90;6.78;;;2.30;87.10;;;;;;5020658;28;20037;-76
2021/10/11 05:13:08;;;;;;;9.95;6.13;;;2.30;86.80;;;;;;5004062;28;20090;-76
2021/10/11 05:15:33;;;;;;;15.30;6.47;;;2.20;86.70;;;;;;5020928;28;20018;-76
2021/10/11 05:17:59;;;;;;;13.00;6.55;;;2.20;86.60;;;;;;5020999;28;20022;-76
2021/10/11 05:20:26;;;;;;;12.98;6.65;;;2.30;87.10;;;;;;5020732;28;20050;-76
2021/10/11 05:22:52;;;;;;;12.05;6.47;;;2.20;86.20;;;;;;5004854;28;20034;-75
2021/10/11 05:25:18;;;;;;;12.82;6.55;;;2.20;86.90;;;;;;5020307;28;20022;-76
2021/10/11 05:27:44;;;;;;;13.02;6.55;;;2.20;87.30;;;;;;5004986;28;20237;-75
2021/10/11 05:30:10;;;;;;;13.27;7.25;;;2.10;87.30;;;;;;5020111;28;20022;-75
2021/10/11 05:32:36;;;;;;;14.48;8.27;;;2.20;87.30;;;;;;5019996;28;20025;-74
2021/10/11 05:35:02;;;;;;;12.70;6.78;;;2.20;87.40;;;;;;5003349;28;20022;-75
2021/10/11 05:37:29;;;;;;;11.90;6.70;;;2.20;87.40;;;;;;5003469;28;20088;-75
2021/10/11 05:39:55;;;;;;;14.50;6.60;;;2.20;87.80;;;;;;5003306;28;20089;-75
2021/10/11 05:42:20;;;;;;;16.35;7.47;;;2.10;87.50;;;;;;5004767;28;20018;-76
2021/10/11 05:44:46;;;;;;;13.73;7.22;;;2.20;88.00;;;;;;5004515;28;20034;-75
2021/10/11 05:47:12;;;;;;;15.88;7.32;;;2.20;88.30;;;;;;5019856;28;20205;-75
2021/10/11 05:49:38;;;;;;;16.52;7.03;;;2.20;88.30;;;;;;5003885;28;20058;-76
2021/10/11 05:52:05;;;;;;;12.40;7.35;;;2.20;89.00;;;;;;5020023;28;20045;-76
2021/10/11 05:54:31;;;;;;;17.90;7.50;;;2.30;88.50;;;;;;5003112;28;20022;-75
2021/10/11 05:56:57;;;;;;;15.57;7.32;;;2.30;89.10;;;;;;5020060;28;20053;-76
2021/10/11 05:59:23;;;;;;;16.55;7.50;;;2.40;89.10;;;;;;5019844;28;20036;-75
2021/10/11 06:01:49;;;;;;;12.32;7.40;;;2.40;89.00;;;;;;5004680;28;20033;-75
2021/10/11 06:04:15;;;;;;;12.70;7.28;;;2.50;88.50;;;;;;4987064;28;20026;-75
2021/10/11 06:06:40;;;;;;;12.70;6.87;;;2.50;88.70;;;;;;4971199;28;20037;-75
2021/10/11 06:09:06;;;;;;;13.43;6.82;;;2.50;88.60;;;;;;5004108;28;20480;-75
2021/10/11 06:11:32;;;;;;;15.05;7.20;;;2.60;88.50;;;;;;5004128;28;20073;-74
2021/10/11 06:13:58;;;;;;;16.05;7.50;;;2.60;88.60;;;;;;5002476;28;20041;-74
2021/10/11 06:16:24;;;;;;;14.63;7.65;;;2.60;88.60;;;;;;4986797;28;20026;-74
2021/10/11 06:18:50;;;;;;;14.27;8.00;;;2.70;88.70;;;;;;5001428;28;20022;-75
2021/10/11 06:21:15;;;;;;;17.38;8.00;;;2.70;89.00;;;;;;5002967;28;20056;-75
2021/10/11 06:23:41;;;;;;;14.75;7.68;;;2.70;88.70;;;;;;5002310;28;20336;-74
2021/10/11 06:26:07;;;;;;;12.75;6.90;;;2.80;88.70;;;;;;5002572;28;20089;-75
2021/10/11 06:28:33;;;;;;;16.52;7.50;;;2.90;88.70;;;;;;4986413;28;20036;-75
2021/10/11 06:30:59;;;;;;;17.92;8.02;;;2.90;89.00;;;;;;4982990;28;20111;-74
2021/10/11 06:33:25;;;;;;;17.38;7.97;;;2.90;88.90;;;;;;4999075;28;20037;-75
2021/10/11 06:35:52;;;;;;;17.58;8.77;;;3.00;89.20;;;;;;4984021;28;20038;-74
2021/10/11 06:38:18;;;;;;;12.45;6.97;;;3.00;88.80;;;;;;4998629;28;20207;-74
2021/10/11 06:40:46;;;;;;;14.70;7.65;;;3.10;89.20;;;;;;5015325;28;20026;-74
2021/10/11 06:43:12;;;;;;;14.55;8.10;;;3.20;89.70;;;;;;4998176;28;20030;-74
2021/10/11 06:45:38;;;;;;;13.50;7.70;;;3.30;88.90;;;;;;5015344;28;20065;-74
2021/10/11 06:48:04;;;;;;;16.83;8.15;;;3.30;88.80;;;;;;5015402;28;20037;-74
2021/10/11 06:50:30;;;;;;;16.58;8.60;;;3.40;88.20;;;;;;4983778;28;20102;-74
2021/10/11 06:52:56;;;;;;;17.08;8.25;;;3.40;88.10;;;;;;4983354;28;20026;-74
2021/10/11 06:55:22;;;;;;;17.48;8.55;;;3.50;88.20;;;;;;4983222;28;20045;-74
2021/10/11 06:57:48;;;;;;;17.58;8.93;;;3.60;87.40;;;;;;4983580;28;20023;-74
2021/10/11 07:00:14;;;;;;;15.88;8.02;;;3.60;86.90;;;;;;4983675;28;20058;-74
2021/10/11 07:02:40;;;;;;;19.43;9.83;;;3.70;86.90;;;;;;4983651;28;20129;-74
2021/10/11 07:05:10;;;;;;;18.92;9.52;;;3.70;86.70;;;;;;4998489;28;20321;-75
2021/10/11 07:07:42;;;;;;;15.85;7.93;;;3.80;86.50;;;;;;4982109;28;20022;-74
2021/10/11 07:10:08;;;;;;;14.23;8.50;;;3.90;86.30;;;;;;4998102;28;20034;-74
2021/10/11 07:12:35;;;;;;;16.23;7.90;;;4.00;85.70;;;;;;4998493;28;20030;-74
2021/10/11 07:15:01;;;;;;;17.80;9.63;;;4.00;84.90;;;;;;4998236;28;20030;-74
2021/10/11 07:17:27;;;;;;;16.73;9.60;;;4.00;84.50;;;;;;4982510;28;20097;-73
2021/10/11 07:19:52;;;;;;;18.23;9.93;;;4.00;84.70;;;;;;4998279;28;20229;-74
2021/10/11 07:22:18;;;;;;;15.68;8.60;;;4.10;84.40;;;;;;4982754;28;20214;-74
2021/10/11 07:24:45;;;;;;;16.25;8.88;;;4.20;84.60;;;;;;4981199;28;20023;-74
2021/10/11 07:27:11;;;;;;;14.80;8.50;;;4.20;84.60;;;;;;4997459;28;20027;-73
2021/10/11 07:29:37;;;;;;;18.58;9.35;;;4.10;84.50;;;;;;4981417;28;20058;-72
2021/10/11 07:32:04;;;;;;;20.37;9.57;;;4.10;85.30;;;;;;4987993;28;20033;-71
2021/10/11 07:34:30;;;;;;;22.25;10.68;;;4.30;85.50;;;;;;4993193;28;20038;-69
2021/10/11 07:36:55;;;;;;;18.85;10.13;;;4.40;86.50;;;;;;4993606;28;20333;-77
2021/10/11 07:39:21;;;;;;;18.23;9.95;;;4.40;85.60;;;;;;4968476;28;20053;-79
2021/10/11 07:41:47;;;;;;;24.17;9.57;;;4.40;85.70;;;;;;4993834;28;20061;-78
2021/10/11 07:44:13;;;;;;;17.52;8.43;;;4.50;85.50;;;;;;5006277;28;20022;-77
2021/10/11 07:46:39;;;;;;;21.83;9.88;;;4.50;85.30;;;;;;4989488;28;20293;-79
2021/10/11 07:49:08;;;;;;;18.63;9.52;;;4.60;86.50;;;;;;5005071;28;20040;-73
2021/10/11 07:51:34;;;;;;;18.23;8.68;;;4.70;86.00;;;;;;5002102;28;20030;-72
2021/10/11 07:54:00;;;;;;;20.17;9.88;;;4.80;86.30;;;;;;5000569;28;20022;-77
2021/10/11 07:56:26;;;;;;;20.48;9.55;;;4.90;86.20;;;;;;5001884;28;20089;-76
2021/10/11 07:58:52;;;;;;;17.67;9.73;;;5.00;85.60;;;;;;5002148;28;20030;-78
2021/10/11 08:01:18;;;;;;;18.30;10.63;;;5.10;85.50;;;;;;5001485;28;20026;-78
2021/10/11 08:03:43;;;;;;;20.10;9.60;;;5.20;84.60;;;;;;4984284;28;20378;-79
2021/10/11 08:06:09;;;;;;;19.45;9.75;;;5.30;84.00;;;;;;4986332;28;20226;-74
2021/10/11 08:08:35;;;;;;;15.48;10.18;;;5.30;82.70;;;;;;5005372;28;20079;-77
2021/10/11 08:11:01;;;;;;;21.02;8.85;;;5.30;82.40;;;;;;5006033;28;20026;-80
2021/10/11 08:13:27;;;;;;;19.63;9.30;;;5.40;82.00;;;;;;4972166;28;20127;-80
2021/10/11 08:15:55;;;;;;;18.58;10.05;;;5.50;81.30;;;;;;4988643;28;20023;-78
2021/10/11 08:18:21;;;;;;;18.20;10.15;;;5.50;80.90;;;;;;4988314;28;20344;-78
2021/10/11 08:20:47;;;;;;;18.30;9.82;;;5.50;80.70;;;;;;5005825;28;20118;-78
2021/10/11 08:23:13;;;;;;;17.92;9.50;;;5.50;81.00;;;;;;4972003;28;20094;-77
2021/10/11 08:25:39;;;;;;;20.10;10.23;;;5.60;81.20;;;;;;5004062;28;20073;-75
2021/10/11 08:28:04;;;;;;;20.75;10.35;;;5.60;81.80;;;;;;4988234;28;20220;-76
2021/10/11 08:30:31;;;;;;;17.40;9.63;;;5.70;81.40;;;;;;4987994;28;20029;-76
2021/10/11 08:32:57;;;;;;;17.70;10.80;;;5.60;82.00;;;;;;5004163;28;20040;-77
2021/10/11 08:35:23;;;;;;;20.40;10.82;;;5.70;82.20;;;;;;5004540;28;20022;-76
2021/10/11 08:37:50;;;;;;;21.60;10.88;;;5.70;82.80;;;;;;5003958;28;20395;-77
2021/10/11 08:40:17;;;;;;;15.18;8.95;;;5.80;82.50;;;;;;5004880;28;20173;-78
2021/10/11 08:42:44;;;;;;;19.58;10.98;;;5.90;82.60;;;;;;5002490;28;20022;-77
2021/10/11 08:45:10;;;;;;;18.90;10.90;;;6.00;82.70;;;;;;4987217;28;20037;-78
2021/10/11 08:47:35;;;;;;;16.75;9.27;;;6.10;82.30;;;;;;5020148;28;20026;-75
2021/10/11 08:50:01;;;;;;;17.38;10.13;;;6.30;81.40;;;;;;5003704;28;20029;-78
2021/10/11 08:52:27;;;;;;;18.80;10.45;;;6.40;80.60;;;;;;5003759;28;20044;-78
2021/10/11 08:54:53;;;;;;;20.23;9.55;;;6.50;80.40;;;;;;5019651;28;20034;-79
2021/10/11 08:57:25;;;;;;;19.43;9.50;;;6.60;79.50;;;;;;5003651;28;20022;-78
2021/10/11 08:59:51;;;;;;;24.55;10.75;;;6.70;79.70;;;;;;4984227;28;20030;-78
2021/10/11 09:02:20;;;;;;;20.92;9.88;;;6.80;78.20;;;;;;5003957;28;20296;-79
2021/10/11 09:04:56;;;;;;;22.17;9.40;;;6.80;79.80;;;;;;4987441;28;20034;-80
2021/10/11 09:07:27;;;;;;;18.48;8.85;;;7.00;78.00;;;;;;4988389;28;20273;-79
2021/10/11 09:09:55;;;;;;;22.88;10.00;;;7.10;78.00;;;;;;4987269;28;20033;-80
2021/10/11 09:12:24;;;;;;;19.63;11.00;;;7.10;78.90;;;;;;5005441;28;20034;-81
2021/10/11 09:15:12;;;;;;;16.42;10.02;;;7.20;78.60;;;;;;4987148;28;20323;-79
2021/10/11 09:17:43;;;;;;;15.93;9.45;;;7.40;77.30;;;;;;5003196;28;20249;-77
2021/10/11 09:20:20;;;;;;;16.63;9.23;;;7.50;76.70;;;;;;5002976;28;20074;-77
2021/10/11 09:22:50;;;;;;;21.20;10.40;;;7.60;76.30;;;;;;5019025;28;20086;-77
2021/10/11 09:25:16;;;;;;;19.20;10.20;;;7.60;77.20;;;;;;5018784;28;20283;-77
2021/10/11 09:27:49;;;;;;;17.58;9.75;;;7.70;77.10;;;;;;5003229;28;20355;-77
2021/10/11 09:30:16;;;;;;;17.38;10.05;;;7.80;77.50;;;;;;5012614;28;20027;-77
2021/10/11 09:32:42;;;;;;;17.92;9.60;;;7.90;78.90;;;;;;5003140;28;20110;-77
2021/10/11 09:35:17;;;;;;;17.30;10.02;;;8.00;78.50;;;;;;5002759;28;20340;-77
2021/10/11 09:37:52;;;;;;;13.85;8.48;;;8.10;76.00;;;;;;5002756;28;20034;-77
2021/10/11 09:40:19;;;;;;;14.00;8.45;;;8.20;75.90;;;;;;5017768;28;20029;-77
2021/10/11 09:42:46;;;;;;;16.42;10.38;;;8.30;74.40;;;;;;5002858;28;20022;-77
2021/10/11 09:45:12;;;;;;;22.40;10.23;;;8.50;73.50;;;;;;4968668;28;20054;-77
2021/10/11 09:47:39;;;;;;;18.38;9.73;;;8.60;73.50;;;;;;4986438;28;20037;-77
2021/10/11 09:50:10;;;;;;;16.60;9.05;;;8.70;73.50;;;;;;5002726;28;20221;-77
2021/10/11 09:52:39;;;;;;;19.30;9.75;;;8.80;73.90;;;;;;5018992;28;20257;-77
2021/10/11 09:55:06;;;;;;;17.40;10.40;;;8.90;74.80;;;;;;5001768;28;20080;-77
2021/10/11 09:57:32;;;;;;;21.52;9.48;;;9.10;74.50;;;;;;5018768;28;20224;-77
2021/10/11 10:00:11;;;;;;;21.43;9.70;;;9.30;74.70;;;;;;5018089;28;20339;-77
2021/10/11 10:02:41;;;;;;;14.43;8.75;;;9.50;74.10;;;;;;4986909;28;20030;-77
2021/10/11 10:05:45;;;;;;;19.95;10.38;;;9.70;73.10;;;;;;5002275;28;20036;-77
2021/10/11 10:08:20;;;;;;;17.27;9.65;;;9.80;71.80;;;;;;5002485;28;20038;-77
2021/10/11 10:10:48;;;;;;;16.83;10.68;;;9.90;71.10;;;;;;5002123;28;20141;-77
2021/10/11 10:13:16;;;;;;;19.65;9.95;;;10.10;70.30;;;;;;4985593;28;20099;-77
2021/10/11 10:15:42;;;;;;;20.05;9.82;;;10.20;70.80;;;;;;4965308;28;20229;-77
2021/10/11 10:18:10;;;;;;;19.83;9.98;;;10.30;72.10;;;;;;5002281;28;20018;-77
2021/10/11 10:20:55;;;;;;;21.75;9.95;;;10.50;71.00;;;;;;5018042;28;20333;-76
2021/10/11 10:23:38;;;;;;;20.40;9.05;;;10.80;70.60;;;;;;5000377;28;20029;-76
2021/10/11 10:26:09;;;;;;;16.85;9.88;;;11.00;69.30;;;;;;5018025;28;20037;-76
2021/10/11 10:28:47;;;;;;;19.42;10.90;;;11.30;68.70;;;;;;5017045;28;20029;-77
2021/10/11 10:31:30;;;;;;;;;;;11.60;67.30;;;;;;5011117;28;20018;-76
2021/10/11 10:33:56;;;;;;;19.02;9.57;;;11.80;67.60;;;;;;5017974;28;20108;-77
2021/10/11 10:36:27;;;;;;;18.63;9.73;;;12.00;65.50;;;;;;5018248;28;20030;-77
2021/10/11 10:39:07;;;;;;;17.40;9.90;;;12.10;66.80;;;;;;5017816;28;20033;-77
2021/10/11 10:41:34;;;;;;;16.90;10.07;;;12.40;68.30;;;;;;5001918;28;20040;-76
2021/10/11 10:44:29;;;;;;;18.42;10.00;;;12.80;65.00;;;;;;5000969;28;20049;-76
2021/10/11 10:47:00;;;;;;;19.73;10.13;;;13.30;63.40;;;;;;4993819;28;20341;-77
2021/10/11 10:49:38;;;;;;;18.52;10.45;;;13.60;62.10;;;;;;4982207;28;20023;-77
2021/10/11 10:52:18;;;;;;;17.15;9.85;;;13.90;58.80;;;;;;4982421;28;20027;-77
2021/10/11 10:54:50;;;;;;;16.83;9.60;;;14.20;58.50;;;;;;4981911;28;20025;-77
2021/10/11 10:57:25;;;;;;;17.10;10.60;;;14.30;58.70;;;;;;4982332;28;20511;-77
2021/10/11 10:59:53;;;;;;;16.67;9.40;;;14.90;58.00;;;;;;4981819;28;20019;-77
2021/10/11 11:02:19;;;;;;;16.85;9.55;;;15.50;56.00;;;;;;5001165;28;20022;-77
2021/10/11 11:04:59;;;;;;;20.07;10.33;;;16.20;55.70;;;;;;5001303;28;20053;-78
2021/10/11 11:07:37;;;;;;;17.20;10.75;;;17.20;50.60;;;;;;4985458;28;20265;-78
2021/10/11 11:10:13;;;;;;;16.35;9.75;;;17.70;47.70;;;;;;5001073;28;20048;-78
2021/10/11 11:12:54;;;;;;;14.17;9.70;;;18.30;46.30;;;;;;5001731;28;20037;-78
2021/10/11 11:15:32;;;;;;;13.40;8.93;;;18.70;45.30;;;;;;5001168;28;20034;-78
2021/10/11 11:18:00;;;;;;;14.45;9.30;;;19.30;45.00;;;;;;5002695;28;20313;-78
2021/10/11 11:20:35;;;;;;;13.88;9.23;;;19.90;43.60;;;;;;5002091;28;20038;-78
2021/10/11 11:23:09;;;;;;;18.45;10.38;;;20.30;42.30;;;;;;5001260;28;20060;-78
2021/10/11 11:25:41;;;;;;;12.30;9.30;;;20.10;40.70;;;;;;5001113;28;20056;-77
2021/10/11 11:28:09;;;;;;;13.63;9.85;;;20.10;41.50;;;;;;4984888;28;20049;-76
2021/10/11 11:30:35;;;;;;;13.95;10.38;;;19.70;40.70;;;;;;4969451;28;20072;-77
2021/10/11 11:33:07;;;;;;;15.25;9.57;;;18.40;43.90;;;;;;4984816;28;20398;-77
2021/10/11 11:35:35;;;;;;;14.93;9.75;;;18.00;45.30;;;;;;5001497;28;20321;-77
2021/10/11 11:38:06;;;;;;;19.60;11.25;;;17.80;46.60;;;;;;5002214;28;20026;-77
2021/10/11 11:40:37;;;;;;;16.75;10.75;;;18.50;45.60;;;;;;4986780;28;20030;-77
2021/10/11 11:43:05;;;;;;;16.73;11.07;;;19.50;43.30;;;;;;4989193;28;20380;-67
2021/10/11 11:45:45;;;;;;;15.15;10.27;;;19.90;42.30;;;;;;5003692;28;20220;-76
2021/10/11 11:48:16;;;;;;;15.70;10.20;;;20.60;40.00;;;;;;4982627;28;20320;-77
2021/10/11 11:50:42;;;;;;;16.63;11.00;;;20.90;39.60;;;;;;4985247;28;20058;-76
2021/10/11 11:53:12;;;;;;;14.20;10.65;;;21.10;39.20;;;;;;4985041;28;20027;-75
2021/10/11 11:55:38;;;;;;;15.55;11.07;;;21.00;38.70;;;;;;4985486;28;20055;-76
2021/10/11 11:58:06;;;;;;;;;;;20.10;39.40;;;;;;5003586;28;20025;-76
2021/10/11 12:00:32;;;;;;;;;;;19.30;41.40;;;;;;5005177;28;19921;-78
2021/10/11 12:02:59;;;;;;;18.77;11.73;;;18.60;43.50;;;;;;5004679;28;20200;-77
2021/10/11 12:05:25;;;;;;;19.33;11.75;;;18.50;44.00;;;;;;4988728;28;20383;-78
2021/10/11 12:07:51;;;;;;;19.15;11.82;;;18.30;45.00;;;;;;5004803;28;20022;-81
2021/10/11 12:10:23;;;;;;;16.30;10.98;;;18.10;45.70;;;;;;4989244;28;20034;-80
2021/10/11 12:13:02;;;;;;;17.58;11.65;;;17.40;47.50;;;;;;5005899;28;20026;-80
2021/10/11 12:15:30;;;;;;;19.33;11.43;;;16.90;48.50;;;;;;5004892;28;19916;-77
2021/10/11 12:18:10;;;;;;;18.70;11.65;;;16.60;48.70;;;;;;4992547;28;20059;-79
2021/10/11 12:20:47;;;;;;;17.42;10.90;;;16.20;50.10;;;;;;5020369;28;20020;-77
2021/10/11 12:23:16;;;;;;;20.70;12.20;;;16.30;48.90;;;;;;5004181;28;20032;-76
2021/10/11 12:25:43;;;;;;;20.23;12.40;;;16.20;49.60;;;;;;5003924;28;20045;-81
2021/10/11 12:28:19;;;;;;;18.25;10.95;;;16.40;48.90;;;;;;5004088;28;20026;-78
2021/10/11 12:30:49;;;;;;;19.65;11.60;;;16.60;50.00;;;;;;5001708;28;20022;-77
2021/10/11 12:33:17;;;;;;;19.45;12.00;;;17.00;48.50;;;;;;5005155;28;20348;-79
2021/10/11 12:35:46;;;;;;;19.63;11.68;;;17.30;48.40;;;;;;5005472;28;20249;-79
2021/10/11 12:38:14;;;;;;;20.88;12.52;;;17.50;47.10;;;;;;5021195;28;20041;-78
2021/10/11 12:40:41;;;;;;;21.05;12.45;;;17.40;47.30;;;;;;5020558;28;20026;-81
2021/10/11 12:43:22;;;;;;;;;;;17.70;47.00;;;;;;5005331;28;20038;-76
2021/10/11 12:46:02;;;;;;;19.15;11.95;;;17.50;48.20;;;;;;5021500;28;19928;-80
2021/10/11 12:48:28;;;;;;;22.45;14.73;;;17.20;48.40;;;;;;4991884;28;20392;-77